Time;durP1;ratioP1;P1;durP2;ratioP2;P2;SDS_P1;SDS_P2;PMS_P1;PMS_P2;Temp;Humidity;BMP_temperature;BMP_pressure;BME280_temperature;BME280_humidity;BME280_pressure;Samples;Min_cycle;Max_cycle;Signal;HPM_P1;HPM_P2
2022/08/08 00:03:34;;;;;;;2.10;1.90;;;;;;;11.38;80.37;97222.97;10578627;28;20186;-70
2022/08/08 00:08:45;;;;;;;5.20;1.60;;;;;;;11.37;80.86;97223.91;10559710;28;20206;-70
2022/08/08 00:13:57;;;;;;;1.77;1.50;;;;;;;11.37;80.80;97229.97;10559998;28;20271;-69
2022/08/08 00:19:21;;;;;;;4.57;1.97;;;;;;;11.21;81.64;97235.91;10559483;28;20768;-69
2022/08/08 00:24:33;;;;;;;2.77;1.70;;;;;;;11.19;81.88;97239.63;10577843;28;20555;-70
2022/08/08 00:29:42;;;;;;;2.33;1.63;;;;;;;11.12;82.51;97234.16;10558870;28;20654;-69
2022/08/08 00:35:11;;;;;;;3.83;1.70;;;;;;;11.14;83.61;97239.25;10577087;28;20212;-70
2022/08/08 00:40:23;;;;;;;4.00;1.70;;;;;;;11.18;83.20;97236.19;10552225;28;20563;-69
2022/08/08 00:45:43;;;;;;;2.97;1.70;;;;;;;11.23;82.60;97233.13;10576838;28;20198;-69
2022/08/08 00:51:02;;;;;;;2.37;1.60;;;;;;;11.11;83.44;97240.38;10575725;28;20189;-69
2022/08/08 00:56:30;;;;;;;2.20;1.53;;;;;;;11.02;83.86;97249.09;10575468;28;20228;-69
2022/08/08 01:01:32;;;;;;;1.80;1.70;;;;;;;11.01;85.46;97256.16;10555509;28;20218;-69
2022/08/08 01:07:18;;;;;;;2.97;1.80;;;;;;;10.80;86.41;97250.31;10542370;28;20297;-69
2022/08/08 01:12:25;;;;;;;2.83;1.80;;;;;;;10.78;87.09;97239.16;10540846;28;20728;-69
2022/08/08 01:18:05;;;;;;;2.20;1.60;;;;;;;10.63;88.33;97250.09;10556091;28;20221;-69
2022/08/08 01:23:44;;;;;;;1.60;1.50;;;;;;;10.69;87.85;97241.66;10556515;28;20514;-70
2022/08/08 01:29:04;;;;;;;2.33;1.87;;;;;;;10.69;88.80;97246.91;10555461;28;20177;-69
2022/08/08 01:34:35;;;;;;;1.60;1.50;;;;;;;10.65;88.96;97239.47;10538781;28;20288;-70
2022/08/08 01:39:42;;;;;;;2.77;1.67;;;;;;;10.70;88.92;97245.09;10538848;28;20225;-69
2022/08/08 01:44:51;;;;;;;2.13;1.60;;;;;;;10.59;89.84;97240.88;10539698;28;20247;-69
2022/08/08 01:50:07;;;;;;;2.53;1.87;;;;;;;10.52;90.38;97245.88;10555634;28;20186;-69
2022/08/08 01:55:27;;;;;;;2.10;1.53;;;;;;;10.35;92.09;97244.81;10574008;28;20354;-70
2022/08/08 02:01:09;;;;;;;3.37;1.70;;;;;;;10.42;92.52;97236.41;10540252;28;20220;-69
2022/08/08 02:06:37;;;;;;;3.87;1.73;;;;;;;10.29;93.31;97242.75;10348871;28;20193;-69
2022/08/08 02:11:47;;;;;;;2.50;1.50;;;;;;;10.33;93.74;97246.75;10525428;28;20202;-70
2022/08/08 02:16:56;;;;;;;2.40;1.60;;;;;;;10.29;93.31;97250.59;10547148;28;20185;-69
2022/08/08 02:22:32;;;;;;;5.50;1.80;;;;;;;10.18;95.01;97262.06;10547924;28;20217;-69
2022/08/08 02:27:40;;;;;;;2.00;1.80;;;;;;;10.11;96.12;97260.94;10563977;28;20186;-69
2022/08/08 02:33:18;;;;;;;2.27;1.63;;;;;;;10.16;95.62;97250.06;10547102;28;20190;-69
2022/08/08 02:38:32;;;;;;;2.57;1.70;;;;;;;10.07;96.49;97254.34;10563331;28;20264;-70
2022/08/08 02:44:05;;;;;;;2.13;1.57;;;;;;;10.02;96.81;97261.78;10563381;28;20193;-69
2022/08/08 02:49:20;;;;;;;2.63;1.80;;;;;;;9.98;97.82;97255.19;10562839;28;20182;-69
2022/08/08 02:54:40;;;;;;;1.90;1.80;;;;;;;9.92;98.01;97259.19;10580387;28;20229;-69
2022/08/08 02:59:52;;;;;;;1.63;1.53;;;;;;;9.92;98.35;97263.59;10545768;28;20494;-69
2022/08/08 03:05:31;;;;;;;3.10;1.77;;;;;;;9.85;98.46;97268.56;10493513;28;20662;-69
2022/08/08 03:11:09;;;;;;;2.53;1.70;;;;;;;9.84;99.34;97277.34;10471533;28;20192;-70
2022/08/08 03:16:19;;;;;;;1.73;1.63;;;;;;;9.71;100.00;97271.56;10462217;28;20175;-70
2022/08/08 03:21:19;;;;;;;2.43;1.93;;;;;;;9.66;100.00;97274.59;10489370;28;20226;-69
2022/08/08 03:26:27;;;;;;;6.67;2.30;;;;;;;9.75;99.72;97262.50;10488277;28;20182;-70
2022/08/08 03:36:47;;;;;;;2.20;1.70;;;;;;;9.71;99.41;97269.78;10473203;28;20234;-70
2022/08/08 03:41:48;;;;;;;1.83;1.60;;;;;;;9.60;100.00;97273.38;10470339;28;20277;-70
2022/08/08 03:46:49;;;;;;;1.87;1.57;;;;;;;9.67;100.00;97280.66;10470466;28;20199;-70
2022/08/08 03:51:55;;;;;;;4.07;2.20;;;;;;;9.52;100.00;97281.06;10469431;28;20191;-70
2022/08/08 03:56:59;;;;;;;3.63;1.80;;;;;;;9.52;100.00;97288.09;10509788;28;20242;-70
2022/08/08 04:02:01;;;;;;;2.50;1.63;;;;;;;9.46;100.00;97292.91;10496248;28;20223;-70
2022/08/08 04:07:01;;;;;;;2.60;1.80;;;;;;;9.50;100.00;97301.28;10517657;28;20596;-70
2022/08/08 04:12:07;;;;;;;2.50;1.90;;;;;;;9.38;100.00;97294.53;10517502;28;20194;-70
2022/08/08 04:17:16;;;;;;;1.70;1.60;;;;;;;9.49;100.00;97298.81;10517122;28;20206;-69
2022/08/08 04:22:17;;;;;;;2.93;1.83;;;;;;;9.55;100.00;97301.69;10535504;28;20190;-69
2022/08/08 04:27:18;;;;;;;2.37;1.80;;;;;;;9.51;100.00;97313.41;10533918;28;20185;-70
2022/08/08 04:32:18;;;;;;;2.90;1.67;;;;;;;9.56;100.00;97305.16;10500216;28;20182;-70
2022/08/08 04:37:19;;;;;;;2.70;1.77;;;;;;;9.58;100.00;97313.69;10499816;28;20544;-70
2022/08/08 04:42:19;;;;;;;4.13;1.70;;;;;;;9.63;100.00;97317.56;10516019;28;20199;-70
2022/08/08 04:47:20;;;;;;;2.00;1.90;;;;;;;9.72;99.85;97315.91;10515918;28;20257;-70
2022/08/08 04:52:21;;;;;;;2.90;1.90;;;;;;;9.97;98.08;97319.78;10499512;28;20187;-70
2022/08/08 04:57:21;;;;;;;2.57;1.60;;;;;;;10.23;95.65;97310.53;10515323;28;20215;-70
2022/08/08 05:02:22;;;;;;;2.20;1.80;;;;;;;10.49;93.92;97305.56;10515783;28;20194;-70
2022/08/08 05:07:22;;;;;;;2.93;1.80;;;;;;;10.71;91.84;97301.81;10533325;28;20186;-70
2022/08/08 05:12:23;;;;;;;1.87;1.60;;;;;;;10.94;90.28;97302.28;10516018;28;20271;-69
2022/08/08 05:17:25;;;;;;;1.80;1.50;;;;;;;11.15;88.63;97293.34;10528733;28;20210;-69
2022/08/08 05:22:26;;;;;;;3.63;2.07;;;;;;;11.47;87.59;97295.53;10578749;27;20185;-70
2022/08/08 05:27:27;;;;;;;2.53;1.83;;;;;;;11.84;86.21;97284.06;10556694;28;20189;-69
2022/08/08 05:32:29;;;;;;;3.37;2.20;;;;;;;12.17;83.69;97279.13;10556290;28;20190;-70
2022/08/08 05:37:34;;;;;;;1.90;1.80;;;;;;;12.39;82.41;97276.97;10556267;28;20213;-70
2022/08/08 05:42:42;;;;;;;2.38;1.75;;;;;;;12.80;80.74;97264.91;10574670;28;20189;-70
2022/08/08 05:47:45;;;;;;;3.30;1.73;;;;;;;13.17;79.37;97263.75;10555971;28;20239;-70
2022/08/08 05:52:46;;;;;;;2.15;1.90;;;;;;;13.50;77.80;97255.97;10555575;28;20316;-70
2022/08/08 05:57:52;;;;;;;3.08;1.80;;;;;;;13.76;76.38;97255.03;10555730;28;20665;-70
2022/08/08 06:03:12;;;;;;;1.95;1.75;;;;;;;14.50;73.77;97225.16;10555619;28;20277;-70
2022/08/08 06:08:28;;;;;;;4.55;1.77;;;;;;;15.44;70.67;97206.81;10555631;28;20194;-70
2022/08/08 06:14:12;;;;;;;2.63;1.38;;;;;;;16.06;68.33;97190.00;10574008;28;20174;-69
2022/08/08 06:19:13;;;;;;;1.77;1.50;;;;;;;17.64;63.13;97124.34;10559813;28;20388;-70
2022/08/08 06:24:14;;;;;;;2.00;1.40;;;;;;;19.02;57.58;97063.50;10538077;28;20189;-70
2022/08/08 06:29:28;;;;;;;2.10;1.35;;;;;;;20.55;52.79;97008.50;10555487;28;20712;-70
2022/08/08 06:34:35;;;;;;;1.25;1.15;;;;;;;21.57;51.63;97020.94;10555009;28;20206;-71
2022/08/08 06:39:38;;;;;;;3.05;1.15;;;;;;;23.24;48.08;96992.19;10555286;28;20282;-71
2022/08/08 06:44:40;;;;;;;1.77;1.30;;;;;;;24.49;43.04;96903.59;10538615;28;20190;-70
2022/08/08 06:49:41;;;;;;;6.05;1.30;;;;;;;23.57;42.92;96897.22;10555268;28;20586;-70
2022/08/08 06:54:43;;;;;;;4.07;1.42;;;;;;;23.34;41.95;96876.69;10561327;28;20579;-70
2022/08/08 06:59:43;;;;;;;4.13;1.27;;;;;;;23.22;42.74;96915.97;10577188;28;20595;-70
2022/08/08 07:04:53;;;;;;;1.42;1.23;;;;;;;24.15;40.41;96886.63;10562188;28;20200;-70
2022/08/08 07:10:08;;;;;;;2.30;1.30;;;;;;;23.20;42.52;96923.41;10560657;28;20209;-70
2022/08/08 07:15:22;;;;;;;2.85;1.10;;;;;;;24.42;40.28;96916.31;10562621;28;20181;-70
2022/08/08 07:20:26;;;;;;;1.40;1.10;;;;;;;23.36;42.55;96954.78;10561767;28;20214;-70
2022/08/08 07:25:31;;;;;;;2.15;1.17;;;;;;;23.93;41.82;96962.19;10545687;28;20190;-70
2022/08/08 07:30:32;;;;;;;2.58;1.10;;;;;;;23.30;40.71;96910.28;10544763;28;20178;-70
2022/08/08 07:35:33;;;;;;;3.22;1.20;;;;;;;24.92;39.60;96947.75;10544690;28;20213;-70
2022/08/08 07:40:33;;;;;;;4.63;1.60;;;;;;;24.34;39.96;96922.84;10544043;28;20212;-70
2022/08/08 07:45:42;;;;;;;1.38;1.00;;;;;;;24.87;38.65;96918.19;10544565;28;20182;-70
2022/08/08 07:50:43;;;;;;;2.70;1.05;;;;;;;23.98;40.64;96932.06;10544239;28;20646;-70
2022/08/08 07:55:46;;;;;;;2.03;1.13;;;;;;;24.69;39.36;96948.69;10559611;28;20364;-70
2022/08/08 08:00:50;;;;;;;1.63;1.05;;;;;;;24.64;37.67;96878.13;10560046;28;20343;-70
2022/08/08 08:05:53;;;;;;;3.65;1.13;;;;;;;26.02;37.03;96918.75;10559958;28;20273;-70
2022/08/08 08:10:57;;;;;;;2.13;1.05;;;;;;;25.67;36.31;96880.47;10559735;28;20178;-70
2022/08/08 08:16:04;;;;;;;2.67;1.30;;;;;;;25.33;37.99;96930.69;10560254;28;20182;-70
2022/08/08 08:21:08;;;;;;;1.92;0.90;;;;;;;26.60;35.59;96909.19;10559301;28;20764;-70
2022/08/08 08:26:11;;;;;;;2.75;1.33;;;;;;;26.64;35.38;96901.41;10559713;28;20279;-70
2022/08/08 08:31:12;;;;;;;2.67;1.48;;;;;;;24.59;36.81;96849.41;10558269;28;20186;-70
2022/08/08 08:36:14;;;;;;;2.95;1.40;;;;;;;25.15;37.80;96929.06;10577520;28;20233;-70
2022/08/08 08:41:20;;;;;;;4.22;1.00;;;;;;;25.43;36.52;96907.50;10541829;28;20214;-70
2022/08/08 08:46:21;;;;;;;2.65;1.23;;;;;;;26.13;34.54;96883.72;10542196;28;20190;-71
2022/08/08 08:51:25;;;;;;;1.52;1.23;;;;;;;25.02;36.16;96898.03;10541428;28;20240;-70
2022/08/08 08:56:27;;;;;;;1.27;1.17;;;;;;;25.17;36.45;96903.63;10557231;28;20279;-70
2022/08/08 09:01:35;;;;;;;2.80;1.20;;;;;;;25.94;34.99;96887.75;10556962;28;20292;-70
2022/08/08 09:06:40;;;;;;;1.38;1.27;;;;;;;26.46;34.65;96910.63;10541262;28;20217;-70
2022/08/08 09:11:45;;;;;;;2.30;1.30;;;;;;;26.43;34.54;96895.84;10557122;28;20182;-70
2022/08/08 09:16:47;;;;;;;1.30;1.20;;;;;;;26.01;34.79;96879.56;10554578;28;20214;-70
2022/08/08 09:21:50;;;;;;;8.43;1.40;;;;;;;25.75;36.90;96944.44;10556060;28;20245;-71
2022/08/08 09:27:00;;;;;;;2.45;1.38;;;;;;;26.61;35.37;96943.03;10540685;28;20680;-71
2022/08/08 09:32:05;;;;;;;2.92;1.50;;;;;;;27.16;34.06;96900.75;10557454;28;20182;-71
2022/08/08 09:37:17;;;;;;;1.92;1.40;;;;;;;26.80;34.52;96910.44;10556317;28;20214;-71
2022/08/08 09:42:21;;;;;;;2.13;1.33;;;;;;;26.32;35.30;96911.03;10557177;28;20189;-71
2022/08/08 09:47:23;;;;;;;1.73;1.40;;;;;;;27.04;35.31;96949.38;10573927;28;20186;-71
2022/08/08 09:52:30;;;;;;;3.22;1.35;;;;;;;27.03;33.49;96860.91;10556536;28;20211;-71
2022/08/08 09:57:33;;;;;;;1.92;1.05;;;;;;;26.17;36.45;96948.47;10574478;28;20214;-71
2022/08/08 10:02:36;;;;;;;1.55;1.20;;;;;;;26.69;35.85;96941.78;10573898;28;20181;-71
2022/08/08 10:07:43;;;;;;;4.13;1.20;;;;;;;26.59;35.54;96929.03;10574030;28;20194;-71
2022/08/08 10:12:43;;;;;;;1.50;1.15;;;;;;;27.80;32.64;96857.81;10572455;28;20234;-71
2022/08/08 10:17:48;;;;;;;1.88;1.20;;;;;;;28.17;32.26;96864.97;10553704;28;20246;-70
2022/08/08 10:22:55;;;;;;;1.88;1.05;;;;;;;28.95;31.33;96874.75;10574416;28;20196;-70
2022/08/08 10:27:56;;;;;;;3.25;1.23;;;;;;;28.44;31.74;96854.75;10578579;28;20182;-71
2022/08/08 10:32:57;;;;;;;2.03;1.20;;;;;;;28.81;32.49;96909.53;10563987;28;20190;-71
2022/08/08 10:38:01;;;;;;;2.88;1.10;;;;;;;29.06;31.93;96879.03;10581855;28;20467;-70
2022/08/08 10:43:03;;;;;;;2.10;1.02;;;;;;;29.06;32.07;96879.03;10563690;28;20194;-71
2022/08/08 10:48:03;;;;;;;2.00;1.13;;;;;;;28.80;32.41;96879.03;10581932;28;20679;-71
2022/08/08 10:53:06;;;;;;;7.77;1.20;;;;;;;29.62;30.71;96844.91;10581344;28;20235;-71
2022/08/08 10:58:08;;;;;;;1.42;1.10;;;;;;;27.90;32.70;96847.91;10580708;28;20479;-71
2022/08/08 11:03:14;;;;;;;1.10;1.00;;;;;;;27.01;33.88;96844.19;10580428;28;20186;-71
2022/08/08 11:08:22;;;;;;;3.65;1.02;;;;;;;27.36;34.60;96885.84;10562521;28;20609;-71
2022/08/08 11:13:22;;;;;;;1.55;1.00;;;;;;;27.60;34.09;96880.88;10562641;28;20194;-71
2022/08/08 11:18:23;;;;;;;6.82;1.20;;;;;;;28.07;33.28;96884.56;10560356;28;20213;-71
2022/08/08 11:23:23;;;;;;;1.85;1.20;;;;;;;28.71;33.30;96907.63;10545592;28;20798;-71
2022/08/08 11:28:25;;;;;;;2.15;1.27;;;;;;;30.30;30.21;96860.53;10561144;28;20194;-70
2022/08/08 11:33:26;;;;;;;1.00;0.80;;;;;;;30.63;29.50;96841.13;10580294;28;20218;-71
2022/08/08 11:38:26;;;;;;;1.73;1.30;;;;;;;29.91;30.42;96823.50;10578857;28;20693;-71
2022/08/08 11:43:29;;;;;;;1.90;0.90;;;;;;;30.47;29.29;96827.72;10561516;28;20197;-71
2022/08/08 11:48:30;;;;;;;0.90;0.90;;;;;;;29.65;30.47;96812.00;10561283;28;20186;-71
2022/08/08 11:53:31;;;;;;;1.52;0.90;;;;;;;30.57;29.42;96824.94;10560648;28;20611;-71
2022/08/08 11:58:32;;;;;;;4.15;1.30;;;;;;;29.77;28.95;96741.44;10560375;28;20213;-70
2022/08/08 12:03:33;;;;;;;1.23;1.10;;;;;;;29.93;30.56;96831.31;10560300;28;20197;-72
2022/08/08 12:08:35;;;;;;;1.67;1.23;;;;;;;30.55;29.92;96832.56;10578715;28;20595;-72
2022/08/08 12:13:35;;;;;;;2.88;1.20;;;;;;;31.00;29.38;96856.81;10578203;28;20186;-71
2022/08/08 12:18:52;;;;;;;3.00;1.20;;;;;;;31.35;29.02;96843.19;10577615;28;20582;-72
2022/08/08 12:24:22;;;;;;;3.55;1.02;;;;;;;29.71;29.94;96775.78;10559971;28;20431;-71
2022/08/08 12:29:25;;;;;;;2.83;1.10;;;;;;;30.16;29.58;96794.69;10577692;28;20244;-71
2022/08/08 12:34:36;;;;;;;3.40;3.03;;;;;;;30.75;28.52;96785.59;10577479;28;20201;-71
2022/08/08 12:39:37;;;;;;;1.70;1.10;;;;;;;31.18;28.93;96824.69;10576949;28;20217;-71
2022/08/08 12:44:39;;;;;;;5.07;1.30;;;;;;;31.15;29.44;96857.72;10577671;28;20193;-71
2022/08/08 12:49:44;;;;;;;2.10;1.10;;;;;;;31.00;27.60;96748.56;10575557;28;20669;-71
2022/08/08 12:54:44;;;;;;;2.42;1.20;;;;;;;29.73;30.12;96806.00;10576648;28;20693;-71
2022/08/08 12:59:50;;;;;;;5.40;1.20;;;;;;;30.60;28.88;96807.38;10576205;28;20221;-71
2022/08/08 13:04:51;;;;;;;1.50;1.00;;;;;;;31.75;28.30;96828.38;10576129;28;20431;-71
2022/08/08 13:09:52;;;;;;;4.25;1.08;;;;;;;31.29;28.24;96786.41;10576324;28;20522;-71
2022/08/08 13:14:54;;;;;;;3.95;1.20;;;;;;;33.19;26.90;96845.19;10575612;28;20190;-71
2022/08/08 13:19:55;;;;;;;3.33;1.08;;;;;;;32.74;25.71;96751.81;10575798;28;20217;-71
2022/08/08 13:24:56;;;;;;;2.03;1.20;;;;;;;32.85;26.63;96807.50;10574921;28;20213;-72
2022/08/08 13:30:02;;;;;;;2.97;1.40;;;;;;;32.83;27.32;96826.81;10557044;28;20189;-72
2022/08/08 13:35:05;;;;;;;3.95;2.40;;;;;;;32.10;27.13;96780.25;10575809;28;20206;-72
2022/08/08 13:40:06;;;;;;;3.78;1.30;;;;;;;31.61;26.99;96738.13;10574524;28;20218;-71
2022/08/08 13:45:07;;;;;;;3.70;1.10;;;;;;;32.36;26.07;96756.25;10556889;28;20232;-72
2022/08/08 13:50:08;;;;;;;3.05;1.00;;;;;;;31.68;26.50;96743.16;10574533;28;20865;-71
2022/08/08 13:55:08;;;;;;;4.95;1.20;;;;;;;32.76;26.62;96801.16;10574636;28;20221;-71
2022/08/08 14:00:17;;;;;;;4.07;1.20;;;;;;;34.20;24.90;96801.00;10577608;28;20217;-72
2022/08/08 14:05:26;;;;;;;1.83;0.90;;;;;;;35.24;23.96;96789.19;10588667;28;20675;-72
2022/08/08 14:10:26;;;;;;;2.08;1.17;;;;;;;34.03;24.98;96778.03;10588282;27;20177;-71
2022/08/08 14:15:32;;;;;;;1.00;0.90;;;;;;;34.57;24.44;96788.22;10588374;27;20559;-71
2022/08/08 14:20:32;;;;;;;1.67;1.00;;;;;;;34.80;24.24;96787.06;10583059;28;20690;-72
2022/08/08 14:25:48;;;;;;;3.25;1.17;;;;;;;34.21;24.84;96759.13;10583945;27;20193;-71
2022/08/08 14:30:52;;;;;;;4.55;1.13;;;;;;;37.30;21.59;96802.69;10585214;28;20188;-72
2022/08/08 14:36:04;;;;;;;2.10;1.05;;;;;;;35.54;22.78;96742.00;10584941;28;20198;-71
2022/08/08 14:41:11;;;;;;;2.70;1.00;;;;;;;36.94;21.71;96768.44;10584951;28;20275;-72
2022/08/08 14:46:19;;;;;;;2.67;1.30;;;;;;;34.23;23.04;96648.94;10585314;27;20184;-71
2022/08/08 14:51:19;;;;;;;3.47;1.40;;;;;;;33.92;24.06;96709.50;10583668;27;20217;-72
2022/08/08 14:56:21;;;;;;;1.00;1.00;;;;;;;35.22;23.43;96764.97;10584253;28;20236;-71
2022/08/08 15:01:26;;;;;;;0.80;0.80;;;;;;;36.91;22.28;96785.47;10584756;28;20289;-72
2022/08/08 15:06:27;;;;;;;1.50;0.85;;;;;;;36.63;22.20;96765.91;10584786;28;20193;-72
2022/08/08 15:11:27;;;;;;;1.95;1.05;;;;;;;34.95;24.01;96736.88;10581901;28;20225;-72
2022/08/08 15:16:28;;;;;;;3.88;1.23;;;;;;;33.12;23.97;96632.22;10560138;28;20250;-71
2022/08/08 15:21:29;;;;;;;4.97;0.90;;;;;;;34.44;24.28;96757.22;10576366;28;20188;-71
2022/08/08 15:26:29;;;;;;;2.13;1.40;;;;;;;34.18;23.58;96703.44;10577059;28;20242;-71
2022/08/08 15:31:29;;;;;;;3.77;1.40;;;;;;;32.99;25.37;96726.94;10577301;28;20631;-71
2022/08/08 15:36:30;;;;;;;3.00;1.00;;;;;;;33.29;25.07;96740.22;10576640;28;20827;-70
2022/08/08 15:41:31;;;;;;;2.10;1.20;;;;;;;33.57;24.98;96759.97;10576587;28;20435;-71
2022/08/08 15:46:33;;;;;;;2.20;1.38;;;;;;;33.87;24.71;96760.47;10576842;28;20439;-71
2022/08/08 15:51:34;;;;;;;2.13;1.27;;;;;;;33.52;25.31;96782.63;10576045;28;20304;-71
2022/08/08 15:56:34;;;;;;;1.23;1.13;;;;;;;34.15;24.92;96782.09;10575045;28;20226;-71
2022/08/08 16:01:34;;;;;;;2.73;1.33;;;;;;;34.79;24.03;96799.06;10575534;28;20507;-72
2022/08/08 16:06:46;;;;;;;1.73;1.20;;;;;;;32.52;26.00;96715.28;10576263;28;20994;-71
2022/08/08 16:11:47;;;;;;;3.03;0.95;;;;;;;34.29;25.08;96812.81;10575130;28;20221;-71
2022/08/08 16:16:48;;;;;;;3.78;1.20;;;;;;;33.87;24.38;96728.63;10573927;28;20201;-71
2022/08/08 16:21:48;;;;;;;3.17;1.37;;;;;;;32.82;25.58;96746.53;10581927;27;20251;-71
2022/08/08 16:26:49;;;;;;;2.22;1.00;;;;;;;31.70;26.62;96724.69;10569918;28;20436;-71
2022/08/08 16:31:49;;;;;;;2.85;1.27;;;;;;;29.55;29.42;96758.84;10571029;28;20218;-70
2022/08/08 16:36:49;;;;;;;2.80;1.42;;;;;;;28.34;30.54;96740.78;10572062;28;20682;-69
2022/08/08 16:41:50;;;;;;;5.03;1.23;;;;;;;27.39;32.60;96797.34;10574306;28;20198;-69
2022/08/08 16:46:50;;;;;;;6.10;1.40;;;;;;;26.80;33.74;96829.78;10573256;28;20442;-70
2022/08/08 16:51:51;;;;;;;2.30;1.30;;;;;;;26.66;33.60;96842.84;10573942;28;20554;-70
2022/08/08 16:56:51;;;;;;;3.65;1.50;;;;;;;26.65;33.86;96855.47;10574790;28;20475;-70
2022/08/08 17:01:51;;;;;;;3.97;1.50;;;;;;;26.92;32.28;96822.34;10576581;28;20190;-70
2022/08/08 17:06:52;;;;;;;6.57;1.53;;;;;;;26.49;34.01;96853.72;10576093;28;20481;-70
2022/08/08 17:11:52;;;;;;;2.72;1.70;;;;;;;25.74;35.27;96872.22;10575177;28;20471;-70
2022/08/08 17:16:52;;;;;;;4.78;1.55;;;;;;;25.34;36.04;96894.78;10576715;28;20263;-70
2022/08/08 17:21:53;;;;;;;3.30;1.90;;;;;;;24.83;37.35;96926.97;10559222;28;20182;-69
2022/08/08 17:26:53;;;;;;;4.03;1.48;;;;;;;24.79;36.63;96915.09;10576122;28;20181;-71
2022/08/08 17:31:54;;;;;;;3.25;2.03;;;;;;;24.17;38.16;96954.94;10576906;28;20214;-70
2022/08/08 17:36:55;;;;;;;4.43;1.63;;;;;;;23.58;39.43;96965.69;10575736;28;20258;-70
2022/08/08 17:41:55;;;;;;;3.08;1.95;;;;;;;23.45;39.64;96990.81;10576436;28;20186;-70
2022/08/08 17:46:55;;;;;;;3.80;2.25;;;;;;;23.08;40.66;96999.00;10576445;28;20282;-70
2022/08/08 17:51:56;;;;;;;3.67;1.73;;;;;;;22.83;40.02;96987.66;10575819;28;20206;-70
2022/08/08 17:56:56;;;;;;;2.25;1.67;;;;;;;22.81;40.59;97003.94;10576307;28;20317;-70
2022/08/08 18:02:00;;;;;;;5.78;1.75;;;;;;;22.74;41.29;97030.75;10575702;28;20223;-70
2022/08/08 18:07:03;;;;;;;2.55;1.77;;;;;;;22.61;40.96;97022.91;10576278;28;20232;-70
2022/08/08 18:12:04;;;;;;;2.65;1.70;;;;;;;22.41;41.20;97023.16;10574157;28;20221;-70
2022/08/08 18:17:05;;;;;;;3.25;1.80;;;;;;;21.92;42.68;97060.41;10572156;28;20570;-70
2022/08/08 18:22:05;;;;;;;3.35;1.70;;;;;;;21.73;42.60;97057.72;10572173;28;20177;-71
2022/08/08 18:27:05;;;;;;;2.55;1.65;;;;;;;21.67;42.92;97079.09;10571854;28;20185;-70
2022/08/08 18:32:07;;;;;;;1.67;1.25;;;;;;;21.45;44.07;97108.75;10571962;28;20278;-70
2022/08/08 18:37:08;;;;;;;6.22;1.75;;;;;;;20.89;46.10;97154.78;10572435;28;20296;-69
2022/08/08 18:42:10;;;;;;;4.68;2.42;;;;;;;20.57;46.51;97160.81;10572019;28;20193;-69
2022/08/08 18:47:10;;;;;;;5.60;1.90;;;;;;;19.82;49.54;97227.56;10556062;28;20669;-69
2022/08/08 18:52:10;;;;;;;4.40;2.00;;;;;;;19.27;50.80;97258.69;10563509;28;20213;-71
2022/08/08 18:57:11;;;;;;;3.17;1.98;;;;;;;18.72;52.46;97283.28;10546588;28;20347;-70
2022/08/08 19:02:13;;;;;;;3.42;1.88;;;;;;;18.20;54.26;97314.50;10563709;28;20185;-70
2022/08/08 19:07:13;;;;;;;6.97;2.42;;;;;;;17.89;54.99;97322.78;10581790;28;20197;-70
2022/08/08 19:12:13;;;;;;;7.68;3.20;;;;;;;17.65;55.53;97330.00;10581805;28;20226;-70
2022/08/08 19:17:14;;;;;;;7.10;3.10;;;;;;;17.36;56.97;97347.59;10581057;28;20190;-70
2022/08/08 19:22:15;;;;;;;8.75;2.75;;;;;;;17.05;57.58;97353.88;10581370;28;20186;-70
2022/08/08 19:27:16;;;;;;;2.97;2.20;;;;;;;16.93;58.18;97358.00;10580043;28;20216;-70
2022/08/08 19:32:16;;;;;;;5.28;1.83;;;;;;;16.80;58.63;97355.09;10580915;28;20209;-70
2022/08/08 19:37:17;;;;;;;3.95;2.03;;;;;;;16.68;59.16;97358.19;10562364;28;20202;-70
2022/08/08 19:42:17;;;;;;;4.85;2.10;;;;;;;16.62;59.61;97364.19;10580055;28;20213;-70
2022/08/08 19:47:18;;;;;;;2.67;1.90;;;;;;;16.47;59.58;97358.84;10579593;28;20193;-70
2022/08/08 19:52:18;;;;;;;4.28;2.55;;;;;;;16.32;60.35;97371.22;10577816;28;20209;-70
2022/08/08 19:57:18;;;;;;;6.57;2.17;;;;;;;16.16;60.44;97367.69;10578846;28;20198;-70
2022/08/08 20:02:19;;;;;;;4.40;2.28;;;;;;;16.05;61.24;97387.41;10579731;28;20221;-70
2022/08/08 20:07:19;;;;;;;3.22;2.30;;;;;;;15.89;61.88;97391.97;10578912;28;20263;-70
2022/08/08 20:12:19;;;;;;;3.10;2.03;;;;;;;15.77;62.03;97391.50;10579399;28;20228;-69
2022/08/08 20:17:21;;;;;;;5.97;2.30;;;;;;;15.59;63.10;97400.50;10578768;28;20194;-70
2022/08/08 20:22:21;;;;;;;3.25;2.30;;;;;;;15.40;63.61;97417.56;10579047;28;20229;-69
2022/08/08 20:27:21;;;;;;;2.92;1.85;;;;;;;15.29;64.10;97421.38;10579083;27;20574;-70
2022/08/08 20:32:25;;;;;;;3.17;2.05;;;;;;;15.16;64.83;97426.38;10577947;28;20626;-69
2022/08/08 20:37:26;;;;;;;2.33;2.00;;;;;;;15.03;65.22;97436.59;10578053;28;20233;-70
2022/08/08 20:42:26;;;;;;;3.88;2.15;;;;;;;14.89;65.85;97428.38;10577695;28;20229;-70
2022/08/08 20:47:26;;;;;;;3.85;1.98;;;;;;;14.76;66.38;97435.94;10578532;28;20193;-70
2022/08/08 20:52:28;;;;;;;2.85;2.10;;;;;;;14.66;66.96;97438.75;10577750;28;20230;-70
2022/08/08 20:57:28;;;;;;;7.68;2.33;;;;;;;14.37;67.90;97445.28;10577984;28;20271;-70
2022/08/08 21:02:47;;;;;;;6.50;2.10;;;;;;;14.33;68.32;97441.31;10577670;28;20256;-70
2022/08/08 21:33:25;;;;;;;4.65;2.35;;;;;;;13.69;71.19;97435.69;10244713;28;20215;-69
2022/08/08 21:38:26;;;;;;;2.60;1.95;;;;;;;13.68;72.08;97449.88;10519343;28;20230;-70
2022/08/08 21:43:27;;;;;;;5.90;2.30;;;;;;;13.63;72.34;97446.84;10575322;28;20200;-70
2022/08/08 21:48:28;;;;;;;4.47;2.10;;;;;;;13.60;72.77;97447.19;10574747;28;20227;-70
2022/08/08 21:53:28;;;;;;;2.40;2.20;;;;;;;13.60;73.07;97448.03;10556495;28;20323;-69
2022/08/08 21:58:31;;;;;;;6.22;2.03;;;;;;;13.51;73.18;97449.78;10574531;28;20228;-70
2022/08/08 22:03:31;;;;;;;2.28;2.05;;;;;;;13.41;74.03;97451.69;10574865;28;20579;-70
2022/08/08 22:08:32;;;;;;;3.33;2.00;;;;;;;13.34;74.64;97445.41;10555702;28;20268;-69
2022/08/08 22:13:33;;;;;;;5.80;2.33;;;;;;;13.18;75.29;97449.56;10574664;28;20197;-69
2022/08/08 22:18:33;;;;;;;2.25;2.00;;;;;;;13.12;75.62;97458.06;10572140;28;20229;-70
2022/08/08 22:23:34;;;;;;;2.40;2.20;;;;;;;13.11;76.08;97459.06;10579594;28;20685;-70
2022/08/08 22:28:35;;;;;;;5.65;2.17;;;;;;;13.05;77.12;97462.28;10582620;28;20189;-70
2022/08/08 22:33:35;;;;;;;8.13;2.47;;;;;;;13.02;77.47;97467.88;10582140;28;20543;-70
2022/08/08 22:38:35;;;;;;;4.40;2.22;;;;;;;12.97;77.52;97463.06;10582297;28;20748;-70
2022/08/08 22:43:36;;;;;;;4.28;2.08;;;;;;;13.00;77.77;97464.53;10581928;28;20543;-70
2022/08/08 22:48:36;;;;;;;4.63;2.20;;;;;;;12.93;78.40;97471.41;10563619;28;20196;-70
2022/08/08 22:53:37;;;;;;;6.75;2.50;;;;;;;12.81;78.71;97471.63;10581695;28;20242;-70
2022/08/08 22:58:37;;;;;;;5.70;2.80;;;;;;;12.91;78.70;97468.94;10581143;28;20218;-70
2022/08/08 23:03:38;;;;;;;4.40;2.07;;;;;;;12.87;78.87;97469.38;10581340;28;20201;-70
2022/08/08 23:08:38;;;;;;;2.70;1.75;;;;;;;12.92;78.80;97477.63;10581025;28;20178;-71
2022/08/08 23:13:38;;;;;;;4.55;2.42;;;;;;;12.94;78.76;97471.25;10581348;28;20197;-71
2022/08/08 23:18:39;;;;;;;3.30;1.90;;;;;;;12.91;78.74;97468.09;10580067;28;20220;-70
2022/08/08 23:23:39;;;;;;;4.45;2.10;;;;;;;12.87;78.95;97475.47;10580494;28;20669;-70
2022/08/08 23:28:39;;;;;;;2.72;2.15;;;;;;;12.79;79.16;97473.59;10579770;28;20253;-70
2022/08/08 23:33:40;;;;;;;2.92;1.80;;;;;;;12.76;79.51;97475.72;10579519;28;20275;-70
2022/08/08 23:38:40;;;;;;;2.40;2.17;;;;;;;12.72;79.80;97471.72;10579336;28;20904;-70
2022/08/08 23:43:40;;;;;;;2.47;2.28;;;;;;;12.60;80.28;97473.75;10579975;28;20627;-70
2022/08/08 23:48:41;;;;;;;4.13;2.13;;;;;;;12.53;80.93;97472.72;10579206;28;20554;-70
2022/08/08 23:53:42;;;;;;;2.10;1.90;;;;;;;12.49;81.23;97472.19;10579095;28;20600;-70
2022/08/08 23:58:42;;;;;;;5.75;2.40;;;;;;;12.46;81.91;97473.28;10579156;28;20270;-70
